This is the latest recevied weather packets stored in our database for station/object N3WMC. If no packets are shown the sender has not sent any weather packets the latest 1 day(s).
| Time | Temp. | Humidity | Pressure | Rain* | Wind** | Luminosity | Snow |
|---|---|---|---|---|---|---|---|
| 1778006800 | 23.89° C | 46% | 1008.9 hPa | 0 mm | 1.79 m/s, 232° | 546 W/m² | - |
| 1778006497 | 23.33° C | 46% | 1008.9 hPa | 0 mm | 2.24 m/s, 290° | 243 W/m² | - |
| 1778006194 | 23.33° C | 46% | 1008.9 hPa | 0 mm | 2.68 m/s, 280° | 475 W/m² | - |
| 1778005891 | 23.89° C | 45% | 1009.3 hPa | 0 mm | 2.68 m/s, 336° | 657 W/m² | - |
| 1778005587 | 23.89° C | 46% | 1009 hPa | 0 mm | 2.24 m/s, 233° | 521 W/m² | - |
| 1778005284 | 23.89° C | 45% | 1009.3 hPa | 0 mm | 1.34 m/s, 347° | 527 W/m² | - |
| 1778004981 | 23.89° C | 47% | 1009.3 hPa | 0 mm | 2.68 m/s, 310° | 620 W/m² | - |
| 1778004678 | 23.33° C | 46% | 1009.1 hPa | 0 mm | 2.68 m/s, 321° | 661 W/m² | - |
| 1778004374 | 22.78° C | 49% | 1009.4 hPa | 0 mm | 1.79 m/s, 258° | 385 W/m² | - |
| 1778004071 | 22.22° C | 49% | 1009.5 hPa | 0 mm | 1.79 m/s, 257° | 219 W/m² | - |
| 1778003768 | 22.22° C | 50% | 1009.3 hPa | 0 mm | 1.34 m/s, 324° | 154 W/m² | - |
| 1778003464 | 22.22° C | 49% | 1009 hPa | 0 mm | 0.45 m/s, 324° | 154 W/m² | - |
| 1778003161 | 22.22° C | 49% | 1009 hPa | 0 mm | 2.68 m/s, 265° | 140 W/m² | - |
| 1778002856 | 22.78° C | 49% | 1009 hPa | 0 mm | 1.79 m/s, 262° | 155 W/m² | - |
| 1778002553 | 22.78° C | 48% | 1008.8 hPa | 0 mm | 3.13 m/s, 265° | 138 W/m² | - |
| 1778002250 | 23.33° C | 48% | 1008.7 hPa | 0 mm | 2.24 m/s, 317° | 217 W/m² | - |
| 1778001948 | 24.44° C | 46% | 1008.5 hPa | 0 mm | 3.13 m/s, 303° | 209 W/m² | - |
| 1778001644 | 23.89° C | 46% | 1008.6 hPa | 0 mm | 1.34 m/s, 322° | 372 W/m² | - |
| 1778001339 | 24.44° C | 46% | 1008.5 hPa | 0 mm | 2.24 m/s, 267° | 658 W/m² | - |
| 1778001036 | 23.89° C | 46% | 1008.5 hPa | 0 mm | 3.13 m/s, 308° | 685 W/m² | - |
| 1778000733 | 24.44° C | 45% | 1008.4 hPa | 0 mm | 4.02 m/s, 292° | 753 W/m² | - |
| 1778000429 | 24.44° C | 45% | 1008.7 hPa | 0 mm | 2.24 m/s, 266° | 319 W/m² | - |
| 1778000125 | 23.89° C | 47% | 1008.6 hPa | 0 mm | 3.13 m/s, 284° | 327 W/m² | - |
| 1777999820 | 23.33° C | 48% | 1008.6 hPa | 0 mm | 2.68 m/s, 354° | 401 W/m² | - |
| 1777999516 | 23.89° C | 46% | 1008.7 hPa | 0 mm | 3.58 m/s, 244° | 354 W/m² | - |
* Rain latest hour (hover to see other rain measurements)
** Current wind speed in m/s (hover to see current wind gust speed)